Flugplatz Burg Feuerstein

Für EDQE sind keine METAR/TAF Berichte vorhanden.
Es werden die Flugwettermeldungen vom Flugplatz Nuremberg in 33 km Entfernung angezeigt.

Bericht für EDDN

vom 22.03. um 21:50 UTC

Wind 3 kt aus 130°

Sichtweite 10 km oder mehr

gute Sicht, keine Wolken < 5000 ft, keine CB, keine Wettererscheinungen (CAVOK)

Temperatur 8.0°C

Taupunkt 4.0°C

Luftfeuchtigkeit 76%

Luftdruck 1028 hPa

EDDN 222150Z 13003KT CAVOK 08/04 Q1028

Prognose für EDDN

vom 22.03. um 17:00 UTC

Zwischen 18:00 UTC und 08:00 UTC

Wind 4 kt aus 120°

Sichtweite 10 km oder mehr

keine signifikanten Wettererscheinungen

keine Wolken


Am 23.03. zwischen 08:00 und 11:00 UTC übergehend zu

Wind 6 kt aus 300°

Sichtweite 10 km oder mehr

keine signifikanten Wettererscheinungen

keine Wolken

TAF EDDN 221700Z 2218/2318 12004KT CAVOK BECMG 2308/2311 30006KT
Impressum